Date,TemperatureHighF,TemperatureAvgF,TemperatureLowF,DewpointHighF,DewpointAvgF,DewpointLowF,HumidityHigh,HumidityAvg,HumidityLow,PressureMaxIn,PressureMinIn,WindSpeedMaxMPH,WindSpeedAvgMPH,GustSpeedMaxMPH,PrecipitationSumIn
2013-1-1,55.3,52.7,49.8,53.0,49.2,46.0,96,88,75,30.09,29.89,8,0,0,0.00
2013-1-2,54.7,47.3,41.1,54.0,44.1,-99.9,98,93,84,30.12,29.85,10,3,0,0.21
2013-1-3,42.8,40.9,34.6,39.0,36.3,32.0,92,83,76,30.19,30.07,10,1,0,0.05
2013-1-4,51.6,41.0,30.6,36.0,28.3,-99.9,95,69,42,30.26,30.13,7,0,0,0.00
2013-1-5,50.4,39.9,30.0,35.0,29.0,23.0,84,67,40,30.33,30.20,8,0,0,0.00
2013-1-6,49.4,45.4,37.8,46.0,40.5,33.0,96,83,68,30.23,30.02,2,0,0,0.03
2013-1-7,52.8,45.1,37.8,45.0,34.3,-99.9,96,73,52,30.39,30.07,14,2,0,0.00
2013-1-8,60.9,50.1,40.3,52.0,45.2,37.0,95,83,70,30.39,30.28,8,1,0,0.00
2013-1-9,70.3,57.1,44.9,58.0,52.5,44.0,97,85,65,30.37,30.29,4,0,0,0.00
2013-1-10,59.9,54.3,47.4,56.0,44.3,34.0,98,72,40,30.45,30.34,13,3,0,0.00
2013-1-11,68.3,57.5,48.0,61.0,54.0,42.0,99,88,74,30.37,30.10,10,2,0,0.08
2013-1-12,64.3,58.9,54.2,61.0,56.3,-99.9,100,95,86,30.12,30.05,0,0,0,0.01
2013-1-13,65.8,60.4,55.6,61.0,58.8,55.0,100,94,82,30.12,30.05,2,0,0,0.01
2013-1-14,68.4,62.4,58.4,64.0,58.1,-99.9,97,91,14,30.14,30.06,6,0,0,0.00
2013-1-15,65.5,57.7,52.9,62.0,54.8,-99.9,99,95,80,30.14,30.02,8,1,0,0.13
2013-1-16,67.3,61.7,56.3,63.0,58.2,-99.9,100,92,83,30.02,29.91,13,2,0,0.01
2013-1-17,67.9,55.6,41.6,63.0,54.4,41.0,100,96,82,29.94,29.74,21,5,0,0.27
2013-1-18,48.2,41.7,35.2,41.0,32.6,-99.9,95,75,50,30.48,29.85,15,3,0,0.00
2013-1-19,58.7,45.9,33.7,48.0,38.5,29.0,93,76,56,30.44,30.13,7,0,0,0.00
2013-1-20,59.9,52.5,43.8,51.0,46.7,39.0,96,81,63,30.12,29.94,8,1,0,0.00
2013-1-21,61.2,51.8,41.3,50.0,43.0,34.0,85,72,59,30.02,29.82,17,1,0,0.00
2013-1-22,53.2,40.8,30.4,42.0,17.5,6.0,68,41,21,30.22,29.86,15,2,0,0.00
2013-1-23,45.1,34.4,26.6,32.0,12.3,0.0,60,42,24,30.33,30.09,9,2,0,0.00
2013-1-24,50.7,38.7,26.7,40.0,22.2,4.0,75,53,31,30.45,29.93,21,8,0,0.00
2013-1-25,38.9,31.2,23.8,33.0,21.6,6.0,97,69,41,30.45,30.04,9,1,0,0.15
2013-1-26,40.9,33.7,29.0,34.0,30.8,28.0,97,89,75,30.33,30.05,10,2,0,0.00
2013-1-27,42.9,35.5,29.3,32.0,24.6,-99.9,95,72,47,30.52,30.33,13,2,0,0.00
2013-1-28,54.4,44.3,34.6,54.0,40.8,28.0,98,87,77,30.46,30.20,7,1,0,0.01
2013-1-29,61.5,55.4,47.6,57.0,52.2,-99.9,100,93,80,30.20,30.08,4,0,0,0.01
2013-1-30,65.8,61.7,56.3,61.0,59.4,56.0,100,92,84,30.09,29.59,20,5,0,0.01
2013-1-31,64.7,54.2,46.5,62.0,40.0,25.0,96,62,35,30.00,29.46,24,6,0,0.25
2013-2-1,53.2,43.6,27.8,36.0,22.0,8.0,60,44,21,30.33,29.95,20,4,0,0.00
2013-2-2,47.3,35.1,25.7,44.0,21.6,12.0,93,60,35,30.36,29.98,7,0,0,0.00
2013-2-3,52.3,44.7,36.6,44.0,31.6,-99.9,87,67,42,29.97,29.79,10,1,0,0.00
2013-2-4,48.8,41.3,29.5,41.0,28.3,20.0,79,61,34,30.09,29.92,6,0,0,0.00
2013-2-5,57.2,51.1,44.2,49.0,43.5,37.0,90,76,61,29.99,29.83,10,2,0,0.00
2013-2-6,63.9,52.9,44.5,49.0,43.6,37.0,94,74,39,30.19,29.91,9,1,0,0.00
2013-2-7,59.5,52.5,46.0,55.0,45.7,-99.9,97,86,71,30.21,29.80,17,6,0,1.65
2013-2-8,61.8,53.4,46.7,62.0,49.3,41.0,99,86,73,29.91,29.39,20,6,0,0.49
2013-2-9,53.6,43.7,32.4,40.0,24.6,-99.9,81,54,28,30.30,29.92,15,3,0,0.00
2013-2-10,54.2,42.6,28.8,46.0,35.2,26.0,91,77,47,30.43,30.25,8,1,0,0.00
2013-2-11,60.9,58.3,49.2,60.0,54.3,-99.9,98,91,80,30.27,29.89,16,5,0,0.14
2013-2-12,60.7,56.5,52.5,57.0,50.6,39.0,98,82,49,30.00,29.88,9,1,0,0.05
2013-2-13,55.7,51.7,48.2,55.0,50.8,47.0,99,96,83,29.95,29.57,11,1,0,0.29
2013-2-14,51.6,46.7,40.8,47.0,38.7,-99.9,93,78,61,30.03,29.73,8,0,0,0.00
2013-2-15,55.7,45.9,36.3,43.0,39.1,35.0,97,79,51,30.04,29.91,4,0,0,0.00
2013-2-16,52.3,42.0,34.3,44.0,37.1,-99.9,97,87,71,29.90,29.62,20,2,0,0.10
2013-2-17,38.0,33.4,29.3,33.0,20.1,8.0,96,62,30,30.23,29.77,21,5,0,0.01
2013-2-18,49.8,37.7,22.4,39.0,21.4,13.0,74,53,31,30.40,30.23,9,1,0,0.00
2013-2-19,59.2,52.2,38.8,54.0,46.3,-99.9,97,85,69,30.26,29.84,16,3,0,0.22
2013-2-20,56.0,47.5,38.0,44.0,31.6,15.0,92,61,21,30.06,29.88,9,1,0,0.00
2013-2-21,52.5,42.9,32.9,38.0,31.0,21.0,81,64,30,30.19,30.02,8,1,0,0.00
2013-2-22,49.8,44.0,39.2,49.0,36.9,29.0,96,77,63,30.27,30.03,8,2,0,0.01
2013-2-23,61.5,52.7,47.9,61.0,49.2,-99.9,100,96,96,30.02,29.75,17,2,0,0.53
2013-2-24,60.9,51.3,46.2,51.0,46.9,-99.9,100,90,57,29.93,29.68,8,1,0,0.00
2013-2-25,47.0,42.3,38.9,46.0,33.6,-99.9,99,75,64,30.13,29.94,11,3,0,0.01
2013-2-26,66.1,54.2,41.8,64.0,51.4,-99.9,99,93,84,30.04,29.55,20,-4,0,0.70
2013-2-27,56.5,53.2,50.8,56.0,47.5,41.0,99,81,67,29.74,29.56,13,3,0,0.01
2013-2-28,55.6,50.1,43.2,48.0,39.1,31.0,87,67,50,29.77,29.62,11,2,0,0.00
2013-3-1,51.4,44.4,35.2,40.0,28.7,-99.9,79,62,43,29.83,29.73,8,1,0,0.00
2013-3-2,52.3,43.6,36.2,34.0,30.0,-99.9,84,63,43,29.84,29.72,11,1,0,0.00
2013-3-3,47.6,39.2,31.8,30.0,25.9,24.0,79,61,40,29.87,29.76,10,1,0,0.00
2013-3-4,48.8,38.6,29.4,31.0,20.1,14.0,68,50,27,30.04,29.87,13,3,0,0.00
2013-3-5,59.5,50.3,35.2,55.0,35.6,-99.9,88,64,42,30.06,29.59,10,1,0,0.01
2013-3-6,59.5,48.3,41.8,56.0,37.9,26.0,92,69,43,29.82,29.43,22,9,0,0.00
2013-3-7,55.4,46.0,39.5,34.0,29.7,-99.9,73,57,39,30.09,29.83,16,5,0,0.00
2013-3-8,54.4,44.9,34.0,31.0,24.8,-99.9,75,51,32,30.14,30.00,18,4,0,0.00
2013-3-9,61.2,48.6,36.8,36.0,28.8,-99.9,76,53,32,30.23,30.13,20,3,0,0.00
2013-3-10,61.8,48.2,32.4,47.0,37.9,30.0,94,71,37,30.25,30.19,11,1,0,0.00
2013-3-11,66.8,57.7,46.4,56.0,50.7,44.0,93,79,58,30.20,29.93,16,3,0,0.00
2013-3-12,61.0,59.2,55.7,60.0,57.5,55.0,98,94,83,29.94,29.71,14,4,0,0.85
2013-3-13,58.7,52.5,45.1,56.0,39.5,-99.9,95,65,37,29.98,29.80,11,2,0,0.00
2013-3-14,52.2,44.1,34.6,31.0,21.6,-99.9,60,44,30,30.14,29.99,16,3,0,0.00
2013-3-15,54.5,46.7,34.0,46.0,26.0,-99.9,74,54,31,30.13,29.91,17,3,0,0.00
2013-3-16,60.9,57.5,54.5,53.0,49.1,-99.9,84,77,69,29.91,29.68,16,5,0,0.00
2013-3-17,59.8,53.7,47.1,53.0,45.4,-99.9,95,81,69,30.09,29.79,16,4,0,0.00
2013-3-18,65.2,54.3,48.2,56.0,50.2,44.0,95,86,70,30.08,29.83,16,4,0,0.00
2013-3-19,67.1,58.3,53.2,58.0,51.4,-99.9,98,83,50,29.90,29.68,10,2,0,0.29
2013-3-20,56.5,50.9,43.1,42.0,23.5,-99.9,74,38,19,30.04,29.75,15,2,0,0.00
2013-3-21,53.3,43.0,33.8,36.0,28.9,-99.9,88,63,36,29.87,29.61,11,1,0,0.00
2013-3-22,48.8,39.1,27.3,36.0,22.5,14.0,65,52,34,30.02,29.88,10,2,0,0.00
2013-3-23,55.1,48.6,40.8,40.0,33.9,26.0,84,58,35,29.98,29.85,4,0,0,0.00
2013-3-24,58.0,48.9,42.8,56.0,45.4,37.0,96,88,64,29.88,29.35,16,4,0,0.35
2013-3-25,51.1,45.8,42.3,45.0,37.5,26.0,96,75,49,29.73,29.42,13,2,0,0.00
2013-3-26,49.2,43.6,35.5,32.0,28.6,26.0,70,57,44,30.00,29.74,9,1,0,0.00
2013-3-27,55.6,45.4,34.7,33.0,28.1,23.0,78,54,29,30.12,30.00,14,3,0,0.00
2013-3-28,55.3,44.9,34.3,31.0,26.7,24.0,70,51,30,30.18,30.07,11,1,0,0.00
2013-3-29,56.2,47.2,34.6,44.0,33.2,25.0,80,60,31,30.26,30.14,14,1,0,0.00
2013-3-30,61.5,54.4,48.5,49.0,45.2,40.0,86,72,48,30.18,30.08,7,1,0,0.00
2013-3-31,61.8,56.2,47.7,56.0,51.4,43.0,94,84,75,30.08,29.80,23,6,0,0.04
2013-4-1,61.2,57.9,55.7,58.0,56.1,55.0,96,93,87,29.83,29.75,9,0,0,0.01
2013-4-2,58.6,53.0,46.5,55.0,39.2,-99.9,96,65,37,30.08,29.84,9,2,0,0.00
2013-4-3,54.8,48.6,45.2,46.0,39.8,32.0,91,73,43,30.23,30.05,13,1,0,0.00
2013-4-4,62.0,51.7,44.6,62.0,44.6,33.0,98,78,58,30.26,29.72,17,3,0,1.26
2013-4-5,62.0,51.6,43.8,61.0,48.4,42.0,99,89,70,29.95,29.66,16,2,0,0.00
2013-4-6,59.2,50.2,40.6,45.0,40.7,35.0,96,73,45,30.24,29.95,17,3,0,0.01
2013-4-7,66.8,58.4,44.8,55.0,47.8,-99.9,96,75,59,30.23,30.11,8,1,0,0.00
2013-4-8,69.3,63.6,58.6,61.0,58.2,55.0,90,82,74,30.16,30.07,8,1,0,0.00
2013-4-9,71.1,65.2,61.3,64.0,61.0,58.0,92,86,78,30.17,30.07,9,2,0,0.00
2013-4-10,71.6,64.8,61.3,64.0,61.6,60.0,98,89,71,30.10,29.97,20,4,0,0.00
2013-4-11,73.5,67.2,62.3,67.0,62.5,-99.9,96,89,80,29.98,29.84,9,2,0,0.00
2013-4-12,70.3,66.4,64.0,68.0,64.9,63.0,98,95,91,29.84,29.64,17,5,0,0.71
2013-4-13,66.1,61.1,51.4,64.0,51.7,-99.9,98,76,55,29.97,29.70,16,3,0,0.00
2013-4-14,71.3,61.8,48.8,59.0,51.0,-99.9,96,73,49,30.07,29.97,4,0,0,0.01
2013-4-15,69.6,65.3,60.2,63.0,59.8,55.0,92,82,72,30.14,29.93,22,4,0,0.49
2013-4-16,74.4,67.2,62.1,65.0,60.1,-99.9,97,83,66,30.22,30.12,11,2,0,0.01
2013-4-17,73.5,66.8,55.6,63.0,60.1,54.0,96,80,66,30.19,30.10,7,0,0,0.00
2013-4-18,74.4,69.0,60.1,65.0,62.1,58.0,94,79,66,30.17,30.04,11,2,0,0.00
2013-4-19,74.4,70.2,66.1,70.0,67.2,65.0,96,90,85,30.04,29.83,16,8,0,0.09
2013-4-20,70.8,58.9,52.2,69.0,52.7,-99.9,98,84,73,30.20,29.81,16,3,0,1.07
2013-4-21,60.2,54.5,48.2,48.0,41.4,-99.9,91,66,50,30.39,30.20,20,6,0,0.00
2013-4-22,55.6,53.2,50.2,53.0,50.3,45.0,97,90,81,30.34,30.08,16,9,0,0.12
2013-4-23,64.3,56.6,52.3,54.0,52.1,50.0,97,86,64,30.12,30.03,16,5,0,0.00
2013-4-24,68.3,59.4,46.7,62.0,53.8,-99.9,96,86,75,30.15,30.00,10,2,0,0.00
2013-4-25,69.8,62.1,53.5,63.0,56.7,47.0,95,83,68,30.22,30.01,13,3,0,0.06
2013-4-26,68.3,59.0,47.6,52.0,43.7,31.0,96,62,27,30.34,30.20,10,2,0,0.00
2013-4-27,70.8,61.7,53.3,53.0,47.1,37.0,91,63,30,30.33,30.24,14,3,0,0.00
2013-4-28,70.3,63.5,52.3,58.0,48.0,38.0,81,59,32,30.24,30.07,10,1,0,0.00
2013-4-29,65.8,64.4,61.5,63.0,60.5,57.0,96,87,74,30.08,29.93,11,2,0,0.50
2013-4-30,75.8,67.2,61.6,64.0,62.0,58.0,98,84,55,30.05,29.93,13,2,0,0.00
2013-5-1,72.3,65.1,59.9,65.0,60.5,58.0,94,85,68,30.20,30.03,11,3,0,0.04
2013-5-2,69.4,63.6,60.4,63.0,59.2,55.0,97,86,63,30.22,30.15,18,5,0,0.07
2013-5-3,68.6,61.5,56.6,59.0,52.1,-99.9,92,76,55,30.15,30.08,21,7,0,0.00
2013-5-4,64.2,58.1,55.0,58.0,55.0,51.0,97,90,72,30.08,29.97,18,7,0,0.08
2013-5-5,70.9,63.0,56.5,64.0,59.4,55.0,96,88,72,29.99,29.91,16,4,0,0.02
2013-5-6,70.4,66.2,61.8,65.0,61.8,59.0,96,86,74,29.94,29.82,14,6,0,0.52
2013-5-7,69.6,63.1,56.6,62.0,57.7,52.0,96,83,65,29.92,29.81,17,1,0,0.02
2013-5-8,70.6,65.5,57.0,62.0,59.3,55.0,94,81,60,29.99,29.89,10,2,0,0.00
2013-5-9,73.2,68.5,64.5,65.0,63.0,60.0,91,82,74,30.03,29.92,10,2,0,0.00
2013-5-10,74.9,70.3,66.3,68.0,65.7,64.0,94,86,74,30.04,29.97,9,1,0,0.00
2013-5-11,76.5,72.0,68.9,71.0,66.4,-99.9,94,87,80,29.98,29.80,17,4,0,0.00
2013-5-12,77.0,71.5,66.3,68.0,61.9,-99.9,94,76,55,29.92,29.73,11,3,0,0.00
2013-5-13,70.4,62.3,51.7,52.0,42.5,-99.9,73,51,31,30.08,29.92,13,-8,0,0.00
2013-5-14,70.8,60.8,47.1,51.0,39.5,-99.9,80,51,24,30.19,30.08,14,2,0,0.00
2013-5-15,72.5,68.7,65.0,64.0,60.4,51.0,84,75,61,30.09,29.90,15,6,0,0.00
2013-5-16,76.7,71.5,67.4,68.0,65.7,63.0,88,82,72,29.94,29.86,10,3,0,0.00
2013-5-17,78.5,73.4,70.4,69.0,67.3,65.0,91,81,71,30.08,29.92,7,1,0,0.00
2013-5-18,78.8,73.4,68.9,72.0,68.6,66.0,93,85,77,30.13,30.06,8,2,0,0.00
2013-5-19,79.2,74.3,69.9,69.0,66.1,-99.9,92,80,68,30.13,30.06,15,2,0,0.01
2013-5-20,79.0,74.0,69.9,70.0,68.4,66.0,91,83,70,30.11,30.02,14,2,0,0.00
2013-5-21,77.6,74.4,72.0,71.0,70.0,69.0,92,86,76,30.03,29.95,13,3,0,0.01
2013-5-22,80.7,75.9,73.0,72.0,71.0,70.0,92,85,73,30.02,29.94,10,2,0,0.00
2013-5-23,76.1,71.1,70.6,72.0,65.2,-99.9,97,88,85,29.94,29.79,10,-31,0,1.15
2013-5-24,80.1,72.5,59.6,72.0,62.3,46.0,96,72,49,30.06,29.72,15,3,0,0.00
2013-5-25,73.0,61.6,49.4,53.0,39.5,-99.9,79,52,27,30.18,30.07,9,2,0,0.00
2013-5-26,73.7,66.5,55.7,58.0,54.8,50.0,89,67,43,30.18,30.09,8,0,0,0.00
2013-5-27,75.6,67.7,53.9,64.0,55.1,47.0,96,67,39,30.23,30.15,7,0,0,0.00
2013-5-28,77.4,73.6,69.6,68.0,65.5,62.0,87,76,64,30.23,30.15,10,2,0,0.00
2013-5-29,80.3,75.5,70.9,71.0,68.1,66.0,92,78,65,30.23,30.14,9,1,0,0.00
2013-5-30,81.1,75.9,67.1,72.0,69.2,65.0,92,80,70,30.24,30.16,8,1,0,0.00
2013-5-31,80.9,77.0,73.5,73.0,67.8,-99.9,91,81,72,30.19,30.09,11,2,0,0.00
2013-6-1,81.2,77.3,74.2,73.0,71.6,70.0,91,83,74,30.12,30.04,10,1,0,0.00
2013-6-2,81.8,77.6,74.6,73.0,71.7,71.0,89,82,72,30.04,29.92,11,3,0,0.00
2013-6-3,79.8,75.2,69.6,75.0,72.2,67.0,96,90,83,29.94,29.82,11,3,0,0.38
2013-6-4,81.4,75.0,69.8,73.0,69.4,64.0,96,83,64,30.04,29.84,14,1,0,0.00
2013-6-5,80.3,74.2,68.8,66.0,62.7,57.0,86,68,47,30.06,29.98,13,2,0,0.00
2013-6-6,79.0,75.4,71.5,73.0,70.1,65.0,95,84,73,30.00,29.81,14,4,0,0.06
2013-6-7,81.1,77.3,74.2,75.0,73.7,71.0,95,88,80,29.83,29.54,30,12,0,0.55
2013-6-8,81.1,77.9,75.6,77.0,74.7,72.0,94,90,82,30.05,29.81,14,5,0,0.00
2013-6-9,82.4,77.7,74.9,77.0,74.4,69.0,96,90,80,30.11,30.05,14,3,0,0.00
2013-6-10,81.8,78.2,74.6,76.0,74.5,72.0,94,88,80,30.10,29.94,18,5,0,0.06
2013-6-11,81.6,78.3,75.3,76.0,73.4,71.0,94,85,76,29.96,29.83,20,7,0,0.01
2013-6-12,85.3,80.1,73.7,77.0,73.4,68.0,95,81,62,29.92,29.82,11,1,0,0.00
2013-6-23,81.8,76.6,77.2,75.0,66.1,-99.9,90,83,77,30.16,30.11,10,-22,0,0.01
2013-6-24,82.0,78.9,77.0,78.0,75.4,73.0,93,89,83,30.19,30.06,10,2,0,0.14
2013-6-25,82.6,79.1,74.6,77.0,75.0,69.0,91,87,75,30.10,29.97,14,4,0,0.03
2013-6-26,83.2,80.1,77.9,77.0,75.7,74.0,93,86,79,30.00,29.89,14,4,0,0.00
2013-6-27,82.4,79.7,76.0,78.0,75.2,70.0,92,86,77,29.89,29.72,17,7,0,0.01
2013-6-28,82.4,78.7,77.4,78.0,73.5,-99.9,93,88,82,29.75,29.59,21,-12,0,0.06
2013-6-29,81.1,63.7,78.1,78.0,40.8,-99.9,93,70,79,29.75,29.58,20,-180,0,0.00
2013-6-30,80.3,77.5,73.2,77.0,74.8,72.0,96,91,84,29.87,29.72,16,4,0,1.18
2013-7-1,79.6,74.3,75.4,77.0,60.2,-99.9,95,83,86,30.03,29.83,22,-26,0,0.21
2013-7-2,83.6,70.6,74.2,78.0,54.5,-99.9,95,77,81,30.18,30.02,13,-103,0,0.11
2013-7-3,83.8,80.7,76.0,77.0,73.9,-99.9,94,85,78,30.23,30.14,10,3,0,0.14
2013-7-4,84.3,81.3,78.5,76.0,73.0,-99.9,87,80,72,30.25,30.19,10,3,0,0.00
2013-7-5,84.9,81.6,79.0,77.0,75.3,73.0,88,81,75,30.25,30.16,9,1,0,0.00
2013-7-6,84.1,81.2,78.8,75.0,73.9,72.0,86,79,69,30.21,30.12,9,1,0,0.00
2013-7-7,84.1,81.2,79.0,74.0,72.8,71.0,82,76,69,30.16,30.05,11,2,0,0.00
2013-7-8,84.0,78.7,78.8,75.0,68.4,-99.9,82,75,68,30.14,30.07,11,-24,0,0.00
2013-7-9,84.1,81.2,78.6,77.0,74.9,73.0,88,81,72,30.14,30.06,9,2,0,0.00
2013-7-10,85.5,81.6,79.0,76.0,74.7,73.0,86,79,71,30.09,29.95,15,3,0,0.00
2013-7-11,84.5,80.8,77.4,77.0,73.2,-99.9,92,82,74,29.97,29.85,14,3,0,0.12
2013-7-12,79.9,76.9,71.8,76.0,73.5,71.0,97,89,81,29.94,29.83,11,2,0,2.00
2013-7-13,84.7,79.5,74.0,76.0,72.3,-99.9,96,83,70,30.15,29.93,14,4,0,0.38
2013-7-14,86.1,81.8,78.6,76.0,74.7,72.0,88,79,66,30.23,30.14,11,4,0,0.01
2013-7-15,86.7,81.5,76.0,78.0,75.0,72.0,94,81,64,30.23,30.18,10,2,0,0.00
2013-7-16,88.0,82.0,74.0,78.0,74.9,72.0,96,80,63,30.20,30.11,6,1,0,0.00
2013-7-17,91.6,83.2,75.6,77.0,73.8,68.0,94,75,47,30.13,30.04,9,1,0,0.02
2013-7-18,88.4,81.9,74.0,77.0,71.5,-99.9,94,75,54,30.08,30.01,8,1,0,0.00
2013-7-19,85.7,82.7,80.5,78.0,74.4,-99.9,86,80,73,30.08,29.97,18,4,0,0.00
2013-7-20,85.1,81.4,77.2,78.0,75.4,74.0,94,82,73,30.02,29.92,16,7,0,0.29
2013-7-21,83.0,80.4,76.5,77.0,73.5,-99.9,92,84,76,29.97,29.88,14,4,0,0.10
2013-7-22,84.1,80.6,77.9,78.0,72.4,-99.9,91,85,78,29.91,29.79,15,3,0,0.00
2013-7-23,81.8,79.8,78.1,77.0,75.5,74.0,92,87,80,29.83,29.68,17,5,0,0.00
2013-7-24,87.0,80.7,77.9,78.0,76.4,74.0,92,87,71,29.76,29.68,13,1,0,0.00
2013-7-25,86.3,79.2,73.5,77.0,72.0,-99.9,94,83,66,29.92,29.71,9,1,0,0.19
2013-7-26,85.7,76.9,69.4,73.0,67.5,-99.9,96,77,53,30.02,29.92,10,1,0,0.00
2013-7-27,87.2,78.9,68.9,75.0,69.0,-99.9,94,76,47,30.00,29.91,9,1,0,0.00
2013-7-28,84.9,80.8,76.1,78.0,75.9,74.0,94,85,76,29.97,29.82,20,2,0,0.61
2013-7-29,84.1,79.3,72.0,78.0,74.9,69.0,95,86,74,30.08,29.95,8,1,0,0.58
2013-7-30,82.2,77.4,72.1,76.0,73.0,70.0,95,86,72,30.14,30.07,8,0,0,0.17
2013-7-31,83.6,78.9,74.2,74.0,69.4,-99.9,95,77,57,30.08,29.97,8,1,0,0.00
2013-8-1,80.1,59.2,72.0,76.0,26.9,-99.9,97,65,78,29.97,29.84,13,-211,0,0.97
2013-8-2,84.5,80.5,77.4,78.0,75.9,74.0,90,86,77,29.98,29.84,11,1,0,0.00
2013-8-3,84.9,81.6,79.6,79.0,77.5,77.0,93,87,79,29.98,29.87,10,2,0,0.00
2013-8-4,84.0,78.7,71.5,77.0,73.0,66.0,94,83,66,29.95,29.80,7,0,0,0.15
2013-8-5,83.4,75.6,65.5,68.0,62.9,57.0,93,67,44,30.02,29.94,9,0,0,0.00
2013-8-6,83.2,78.0,69.3,70.0,67.3,62.0,91,70,60,30.02,29.94,8,1,0,0.00
2013-8-7,83.8,77.9,72.5,75.0,66.3,-99.9,90,74,68,30.05,29.99,9,-19,0,0.01
2013-8-8,86.7,82.2,79.2,78.0,76.2,74.0,88,82,73,30.01,29.96,6,0,0,0.00
2013-8-9,85.1,82.4,80.9,79.0,77.7,76.0,91,85,77,30.03,29.97,15,4,0,0.00
2013-8-10,85.5,82.5,79.0,79.0,78.0,75.0,92,86,79,30.07,29.97,16,4,0,0.01
2013-8-11,87.6,82.3,77.4,80.0,77.3,74.0,93,85,74,30.05,29.97,9,0,0,0.00
2013-8-12,88.0,82.6,78.5,81.0,77.8,73.0,95,85,76,30.00,29.88,9,1,0,0.00
2013-8-13,85.1,81.4,74.9,80.0,76.2,-99.9,95,88,79,29.89,29.73,20,4,0,0.75
2013-8-14,81.4,75.8,70.6,78.0,67.0,-99.9,96,83,71,29.98,29.72,11,1,0,0.31
2013-8-15,71.6,68.2,66.0,68.0,65.2,61.0,96,90,69,30.05,29.97,9,0,0,0.79
2013-8-16,75.6,71.4,69.3,70.0,68.7,67.0,96,91,82,30.06,29.97,9,1,0,0.00
2013-8-17,79.6,74.1,69.1,76.0,72.2,66.0,97,93,83,30.07,29.98,9,1,0,0.60
2013-8-18,84.5,78.1,72.8,77.0,72.9,-99.9,98,88,76,30.13,30.05,8,0,0,0.00
2013-8-19,82.8,76.5,73.9,77.0,74.4,73.0,97,93,78,30.11,30.02,6,0,0,0.20
2013-8-20,84.5,78.1,73.3,75.0,73.4,72.0,96,86,72,30.11,30.03,9,1,0,0.00
2013-8-21,86.1,80.4,74.2,78.0,73.0,-99.9,96,83,69,30.16,30.07,6,0,0,0.00
2013-8-22,84.0,77.8,72.5,77.0,68.8,-99.9,94,82,77,30.08,29.95,7,-22,0,0.00
2013-8-23,86.3,79.8,72.3,78.0,74.3,67.0,95,83,66,29.96,29.85,9,1,0,0.14
2013-8-24,82.4,71.0,69.9,73.0,59.3,-99.9,97,76,58,30.17,29.93,15,-49,0,0.03
2013-8-25,80.1,74.1,68.8,66.0,64.1,62.0,84,71,59,30.26,30.16,13,2,0,0.00
2013-8-26,83.6,72.5,65.0,67.0,59.7,-99.9,93,69,35,30.21,30.06,7,-21,0,0.00
2013-8-27,81.2,75.9,66.3,69.0,63.4,-99.9,88,69,53,30.06,29.92,9,1,0,0.00
2013-8-28,82.0,79.1,76.5,77.0,73.0,68.0,90,81,73,29.94,29.84,9,1,0,0.00
2013-8-29,87.6,73.2,73.7,77.0,52.0,-99.9,89,72,66,29.92,29.77,22,-72,0,0.00
2013-8-30,83.6,76.9,69.1,74.0,71.1,68.0,96,83,67,29.97,29.89,11,2,0,0.00
2013-8-31,85.3,79.5,71.6,77.0,73.8,70.0,96,83,67,29.93,29.84,6,0,0,0.00
2013-9-1,85.3,81.5,78.8,79.0,77.4,76.0,92,87,80,29.89,29.78,13,2,0,0.00
2013-9-2,84.1,80.5,72.5,80.0,75.5,-99.9,97,89,84,29.86,29.76,15,4,0,1.68
2013-9-3,84.5,79.7,73.9,79.0,75.8,71.0,96,88,76,29.87,29.76,17,2,0,0.75
2013-9-4,84.0,77.7,70.1,76.0,72.6,68.0,95,84,71,30.01,29.86,7,1,0,0.00
2013-9-5,84.5,78.4,72.5,78.0,74.8,71.0,96,89,77,30.02,29.94,6,0,0,0.06
2013-9-6,83.4,75.9,69.3,75.0,67.3,-99.9,97,83,70,30.04,29.95,9,1,0,0.11
2013-9-7,81.2,74.0,66.9,66.0,62.2,57.0,86,68,45,30.03,29.92,4,0,0,0.00
2013-9-8,81.8,74.3,63.1,72.0,67.1,61.0,95,79,64,29.93,29.84,7,0,0,0.00
2013-9-9,84.9,78.7,71.6,74.0,71.2,68.0,94,78,59,30.09,29.92,9,1,0,0.00
2013-9-10,87.4,78.9,71.1,74.0,71.0,67.0,94,78,51,30.16,30.09,9,1,0,0.00
2013-9-11,85.1,77.4,69.8,73.0,70.2,68.0,95,79,56,30.14,30.03,11,1,0,0.00
2013-9-12,83.0,30.8,69.4,78.0,-29.1,-99.9,96,39,82,30.03,29.76,0,-572,0,0.00
2013-9-13,87.8,53.8,72.0,75.0,9.0,-99.9,87,45,51,29.76,29.66,8,-318,0,0.19
2013-9-14,79.4,66.6,66.4,68.0,44.3,-99.9,91,70,64,30.05,29.75,13,-50,0,0.01
2013-9-15,81.2,72.6,67.3,68.0,62.6,-99.9,90,74,55,30.15,30.04,7,-10,0,0.00
2013-9-16,84.1,74.3,66.6,76.0,70.3,65.0,96,88,70,30.09,29.97,7,0,0,0.46
2013-9-17,76.5,70.2,64.5,66.0,59.6,-99.9,87,73,61,30.19,30.05,13,4,0,0.00
2013-9-18,76.7,67.7,58.4,63.0,54.6,-99.9,94,71,52,30.18,30.09,11,2,0,0.00
2013-9-19,78.3,68.6,59.9,64.0,57.0,-99.9,92,72,48,30.11,30.02,9,0,0,0.00
2013-9-20,80.7,72.0,65.2,66.0,61.4,-99.9,93,75,48,30.03,29.91,8,0,0,0.00
2013-9-21,78.5,73.6,66.4,72.0,68.6,63.0,94,85,73,29.91,29.70,4,0,0,0.00
2013-9-22,79.8,73.9,68.9,73.0,69.3,62.0,95,86,75,29.75,29.60,18,3,0,0.62
2013-9-23,74.2,68.0,61.3,64.0,57.6,54.0,89,71,51,30.01,29.76,14,1,0,0.00
2013-9-24,74.0,64.2,53.2,58.0,54.7,52.0,95,73,51,30.04,29.90,10,1,0,0.00
2013-9-25,73.0,63.4,55.1,61.0,54.1,-99.9,95,77,60,29.91,29.79,7,-10,0,0.00
2013-9-26,77.9,69.3,63.1,65.0,62.2,60.0,93,79,57,29.90,29.78,9,1,0,0.11
2013-9-27,74.9,68.6,63.2,63.0,57.8,-99.9,93,74,50,30.04,29.89,14,3,0,0.00
2013-9-28,76.1,68.9,62.1,63.0,61.2,59.0,93,77,59,30.09,30.01,13,3,0,0.00
2013-9-29,77.0,68.0,62.0,65.0,60.6,-99.9,94,82,62,30.04,29.91,10,1,0,0.00
2013-9-30,76.3,60.2,57.5,62.0,45.3,-99.9,96,74,53,30.00,29.91,8,-52,0,0.00
2013-10-1,78.3,61.4,54.7,64.0,47.3,-99.9,96,72,46,30.06,29.97,8,-58,0,0.00
2013-10-5,82.8,78.9,75.6,72.0,62.0,-99.9,89,70,56,30.05,30.00,6,0,0,0.00
2013-10-6,81.6,77.0,68.6,74.0,70.7,67.0,95,81,66,30.02,29.92,11,1,0,0.02
2013-10-7,82.6,78.6,76.3,74.0,72.8,71.0,91,83,70,29.91,29.81,14,4,0,0.00
2013-10-8,77.7,66.4,63.5,73.0,65.2,62.0,97,96,85,29.99,29.84,17,7,0,1.09
2013-10-9,67.4,64.7,62.3,66.0,63.9,62.0,97,97,94,29.98,29.80,22,9,0,0.74
2013-10-10,65.5,62.2,59.9,63.0,60.9,59.0,99,95,88,29.82,29.76,13,4,0,0.00
2013-10-11,66.8,62.9,59.6,63.0,59.2,-99.9,97,92,86,29.88,29.79,7,0,0,0.02
2013-10-12,69.3,65.8,62.6,66.0,63.8,62.0,98,93,85,29.97,29.86,0,0,0,0.00
2013-10-13,78.5,70.5,65.2,69.0,67.3,65.0,98,90,70,30.04,29.95,10,2,0,0.00
2013-10-14,72.7,69.9,66.6,69.0,66.2,63.0,92,88,81,30.07,30.00,14,4,0,0.00
2013-10-15,70.9,66.9,64.0,67.0,62.5,-99.9,94,90,83,30.03,29.92,14,3,0,0.00
2013-10-16,73.5,69.3,66.9,68.0,66.5,65.0,95,91,83,29.94,29.88,8,1,0,0.00
2013-10-17,74.9,69.4,61.6,69.0,63.5,-99.9,99,86,72,29.92,29.82,7,0,0,0.01
2013-10-18,76.3,71.2,68.1,70.0,64.9,-99.9,96,85,64,29.94,29.83,6,0,0,0.04
2013-10-19,75.6,70.8,67.1,73.0,67.9,-99.9,99,95,85,29.90,29.78,0,0,0,0.38
2013-10-20,70.3,64.5,59.5,69.0,56.4,-99.9,95,79,67,30.04,29.81,10,1,0,0.00
2013-10-21,69.4,62.2,57.0,60.0,50.3,-99.9,91,74,59,30.08,29.93,7,-10,0,0.00
2013-10-22,67.3,63.0,58.1,61.0,57.2,53.0,92,81,67,29.94,29.78,4,0,0,0.02
2013-10-23,71.8,50.5,59.6,61.0,25.3,-99.9,98,67,51,29.88,29.60,11,-210,0,0.40
2013-10-24,60.7,32.3,43.6,42.0,-15.1,-99.9,87,40,41,30.11,29.88,6,-365,0,0.00
2013-10-25,58.1,49.3,39.9,43.0,35.2,-99.9,89,63,36,30.29,30.11,11,2,0,0.00
2013-10-26,62.6,50.2,38.2,48.0,40.5,35.0,91,71,50,30.29,30.06,6,0,0,0.00
2013-10-27,65.6,57.0,49.8,49.0,43.0,35.0,92,61,41,30.10,30.01,6,0,0,0.00
2013-10-28,69.8,58.0,46.5,56.0,50.2,45.0,96,78,41,30.20,30.09,7,0,0,0.00
2013-10-29,73.2,61.3,51.0,58.0,53.6,49.0,95,77,54,30.26,30.17,7,0,0,0.00
2013-10-30,72.3,63.5,56.0,61.0,55.8,-99.9,97,81,59,30.26,30.14,4,0,0,0.00
2013-10-31,71.6,63.8,56.0,68.0,59.3,-99.9,97,90,76,30.17,29.96,23,-9,0,0.02
2013-11-1,73.7,71.8,67.4,71.0,69.1,66.0,96,91,85,29.95,29.69,16,3,0,0.08
2013-11-2,73.2,65.9,62.1,71.0,63.0,57.0,98,90,77,29.81,29.63,9,1,0,0.95
2013-11-3,63.2,55.9,50.8,59.0,41.2,-99.9,88,66,46,30.27,29.81,9,-9,0,0.00
2013-11-4,57.6,52.4,45.8,49.0,40.4,-99.9,91,68,53,30.43,30.27,15,3,0,0.00
2013-11-5,73.2,62.0,51.1,59.0,54.3,49.0,91,77,53,30.38,30.32,14,4,0,0.00
2013-11-6,66.4,62.8,58.6,65.0,60.9,56.0,99,93,84,30.32,30.06,10,3,0,0.15
2013-11-7,69.1,65.8,55.4,68.0,61.8,-99.9,99,92,63,30.06,29.84,16,1,0,0.11
2013-11-8,57.3,49.8,39.2,42.0,35.0,-99.9,88,62,37,30.26,29.96,9,2,0,0.00
2013-11-9,60.9,51.2,37.0,53.0,43.5,35.0,96,77,55,30.32,30.14,6,0,0,0.00
2013-11-10,66.4,59.7,53.6,56.0,48.3,42.0,84,67,48,30.17,30.02,9,1,0,0.00
2013-11-11,60.2,51.7,41.8,45.0,41.6,37.0,94,70,55,30.26,30.10,11,1,0,0.00
2013-11-12,67.3,49.1,36.2,47.0,38.6,27.0,96,70,35,30.26,29.95,17,4,0,0.00
2013-11-13,44.9,36.9,29.8,32.0,23.7,18.0,93,61,37,30.44,30.26,18,5,0,0.00
2013-11-14,56.7,41.0,27.3,37.0,28.3,15.0,88,65,21,30.45,30.30,2,0,0,0.00
2013-11-15,67.3,54.3,37.9,61.0,47.6,36.0,97,80,53,30.33,30.18,7,0,0,0.27
2013-11-16,73.0,63.7,59.2,66.0,61.1,58.0,99,91,72,30.20,30.11,7,1,0,0.04
2013-11-17,74.7,64.9,57.5,67.0,62.6,57.0,98,92,75,30.14,29.92,10,0,0,0.05
2013-11-18,71.3,66.6,58.6,68.0,64.7,49.0,99,94,71,29.91,29.72,11,1,0,0.01
2013-11-19,58.0,52.3,46.0,49.0,36.0,32.0,73,55,39,30.20,29.82,16,3,0,0.00
2013-11-20,58.3,51.0,43.9,49.0,43.8,38.0,87,77,65,30.32,30.18,14,5,0,0.00
2013-11-21,63.5,57.0,52.8,60.0,54.8,49.0,98,92,83,30.37,30.30,9,2,0,0.03
2013-11-22,69.1,61.6,52.9,62.0,58.4,52.0,99,89,74,30.32,30.05,6,0,0,0.01
2013-11-23,66.0,57.9,49.6,63.0,55.5,35.0,97,91,58,30.05,29.95,11,1,0,0.06
2013-11-24,49.2,38.0,29.7,33.0,17.2,9.0,57,44,30,30.47,30.02,17,4,0,0.00
2013-11-25,43.8,35.5,26.4,37.0,20.6,-99.9,87,60,49,30.52,30.31,7,1,0,0.00
2013-11-26,66.0,55.9,40.5,66.0,51.9,-99.9,98,90,76,30.31,29.59,20,5,0,0.83
2013-11-29,53.1,43.9,39.6,35.0,17.6,-99.9,76,53,36,30.52,30.44,14,-34,0,0.00
2013-11-30,56.5,46.7,38.3,46.0,41.0,32.0,92,81,68,30.50,30.26,11,5,0,0.00
2013-12-1,58.6,49.7,43.5,52.0,47.4,42.0,98,92,76,30.25,29.95,9,2,0,0.01
2013-12-2,55.1,50.5,45.8,50.0,47.3,43.0,98,89,74,29.95,29.72,8,2,0,0.00
2013-12-3,59.5,49.7,38.6,47.0,41.4,37.0,95,75,46,29.97,29.80,4,0,0,0.00
2013-12-4,63.5,58.5,53.1,63.0,57.4,47.0,99,96,79,30.07,29.95,0,0,0,0.49
2013-12-5,70.8,61.9,52.2,67.0,60.9,52.0,100,96,84,30.12,30.05,4,0,0,0.01
2013-12-6,68.9,65.6,62.4,66.0,64.5,62.0,99,96,87,30.11,30.02,11,2,0,0.00
2013-12-7,67.3,54.0,43.2,67.0,50.0,-99.9,99,94,91,30.34,30.02,14,5,0,0.37
2013-12-8,48.2,44.6,42.8,46.0,42.1,-99.9,98,95,92,30.33,30.19,13,4,0,0.07
2013-12-9,65.6,54.4,44.5,63.0,50.6,-99.9,100,95,89,30.19,30.02,0,0,0,0.00
2013-12-10,63.4,54.3,38.5,63.0,52.0,-99.9,100,96,88,30.25,29.78,17,2,0,0.10
2013-12-11,51.9,40.1,30.9,37.0,28.0,-99.9,96,71,44,30.41,30.23,7,0,0,0.01
2013-12-12,47.0,38.9,30.1,31.0,27.0,-99.9,91,67,43,30.34,30.19,14,1,0,0.00
2013-12-13,49.6,37.7,27.3,33.0,28.2,21.0,95,72,37,30.38,30.25,2,0,0,0.00
2013-12-14,65.6,53.0,33.7,64.0,47.3,30.0,100,82,57,30.27,29.71,24,4,0,2.03
2013-12-15,60.7,53.7,41.9,61.0,49.5,-99.9,100,90,75,30.01,29.64,7,0,0,0.09
2013-12-16,55.6,44.3,34.4,43.0,36.7,31.0,96,76,46,30.14,30.01,9,1,0,0.00
2013-12-17,59.5,54.2,40.2,51.0,46.8,39.0,98,77,65,30.13,29.89,15,3,0,0.00
2013-12-18,55.7,44.5,32.8,48.0,27.4,-99.9,81,58,31,30.27,29.92,13,1,0,0.00
2013-12-19,57.0,46.3,31.6,48.0,39.1,28.0,95,77,50,30.31,30.23,7,0,0,0.00
2013-12-20,67.8,56.4,44.1,61.0,52.4,-99.9,99,91,76,30.23,30.11,6,0,0,0.00
2013-12-21,68.8,63.3,57.8,65.0,62.1,57.0,100,95,85,30.15,30.08,9,1,0,0.01
2013-12-22,71.1,66.3,62.6,68.0,65.1,62.0,100,95,86,30.11,30.05,10,1,0,0.67
2013-12-23,69.6,65.8,59.9,67.0,63.1,-99.9,100,95,88,30.09,29.97,13,3,0,0.08
2013-12-24,59.8,44.7,37.0,60.0,40.2,27.0,99,85,64,30.34,29.98,14,3,0,0.18
2013-12-25,43.8,38.1,30.9,37.0,27.1,-99.9,86,71,63,30.46,30.31,11,2,0,0.00
2013-12-26,47.9,43.0,39.6,47.0,39.4,-99.9,98,91,83,30.30,30.17,10,1,0,0.05
2013-12-27,52.8,44.0,37.0,40.0,32.9,-99.9,91,73,46,30.36,30.25,10,1,0,0.00
2013-12-28,61.8,48.6,36.2,44.0,37.5,32.0,90,67,40,30.36,30.11,6,0,0,0.00
2013-12-29,65.6,61.2,53.1,64.0,58.3,45.0,99,90,74,30.11,29.67,15,6,0,0.37
2013-12-30,58.7,51.2,43.8,51.0,47.8,43.0,99,88,68,30.07,29.87,4,0,0,0.01
2013-12-31,48.3,45.8,43.3,45.0,43.9,42.0,96,92,87,30.16,30.04,4,0,0,0.00